sensor_id;sensor_type;location;lat;lon;timestamp;P1;durP1;ratioP1;P2;durP2;ratioP2
66384;SDS011;53426;55.872;37.462;2022-08-19T00:01:33;13.63;;;5.20;;
66384;SDS011;53426;55.872;37.462;2022-08-19T00:04:02;10.98;;;5.50;;
66384;SDS011;53426;55.872;37.462;2022-08-19T00:06:30;11.07;;;5.32;;
66384;SDS011;53426;55.872;37.462;2022-08-19T00:08:56;12.70;;;5.30;;
66384;SDS011;53426;55.872;37.462;2022-08-19T00:11:23;9.85;;;5.50;;
66384;SDS011;53426;55.872;37.462;2022-08-19T00:13:49;8.50;;;5.18;;
66384;SDS011;53426;55.872;37.462;2022-08-19T00:16:16;7.10;;;5.60;;
66384;SDS011;53426;55.872;37.462;2022-08-19T00:18:46;8.70;;;5.85;;
66384;SDS011;53426;55.872;37.462;2022-08-19T00:21:13;11.80;;;5.55;;
66384;SDS011;53426;55.872;37.462;2022-08-19T00:23:39;8.60;;;4.93;;
66384;SDS011;53426;55.872;37.462;2022-08-19T00:26:06;7.78;;;5.60;;
66384;SDS011;53426;55.872;37.462;2022-08-19T00:28:32;9.85;;;5.35;;
66384;SDS011;53426;55.872;37.462;2022-08-19T00:31:02;9.70;;;5.43;;
66384;SDS011;53426;55.872;37.462;2022-08-19T00:33:30;7.88;;;5.65;;
66384;SDS011;53426;55.872;37.462;2022-08-19T00:36:00;16.50;;;6.25;;
66384;SDS011;53426;55.872;37.462;2022-08-19T00:38:27;8.77;;;5.30;;
66384;SDS011;53426;55.872;37.462;2022-08-19T00:40:59;14.35;;;5.60;;
66384;SDS011;53426;55.872;37.462;2022-08-19T00:43:26;10.43;;;5.45;;
66384;SDS011;53426;55.872;37.462;2022-08-19T00:45:53;12.65;;;5.63;;
66384;SDS011;53426;55.872;37.462;2022-08-19T00:48:20;12.75;;;6.43;;
66384;SDS011;53426;55.872;37.462;2022-08-19T00:50:48;9.68;;;6.57;;
66384;SDS011;53426;55.872;37.462;2022-08-19T00:53:16;16.55;;;6.47;;
66384;SDS011;53426;55.872;37.462;2022-08-19T00:55:46;9.60;;;6.60;;
66384;SDS011;53426;55.872;37.462;2022-08-19T00:58:16;9.95;;;6.38;;
66384;SDS011;53426;55.872;37.462;2022-08-19T01:00:44;14.38;;;6.22;;
66384;SDS011;53426;55.872;37.462;2022-08-19T01:03:13;11.45;;;6.10;;
66384;SDS011;53426;55.872;37.462;2022-08-19T01:05:42;12.23;;;6.20;;
66384;SDS011;53426;55.872;37.462;2022-08-19T01:08:10;14.70;;;6.65;;
66384;SDS011;53426;55.872;37.462;2022-08-19T01:10:41;14.82;;;6.70;;
66384;SDS011;53426;55.872;37.462;2022-08-19T01:13:16;10.50;;;6.57;;
66384;SDS011;53426;55.872;37.462;2022-08-19T01:15:46;9.73;;;6.15;;
66384;SDS011;53426;55.872;37.462;2022-08-19T01:18:17;13.45;;;6.68;;
66384;SDS011;53426;55.872;37.462;2022-08-19T01:20:45;18.73;;;7.10;;
66384;SDS011;53426;55.872;37.462;2022-08-19T01:23:11;18.08;;;6.32;;
66384;SDS011;53426;55.872;37.462;2022-08-19T01:25:42;12.52;;;6.68;;
66384;SDS011;53426;55.872;37.462;2022-08-19T01:28:15;14.27;;;7.63;;
66384;SDS011;53426;55.872;37.462;2022-08-19T01:30:43;11.80;;;7.25;;
66384;SDS011;53426;55.872;37.462;2022-08-19T01:33:09;9.93;;;7.35;;
66384;SDS011;53426;55.872;37.462;2022-08-19T01:35:35;15.02;;;6.90;;
66384;SDS011;53426;55.872;37.462;2022-08-19T01:38:05;11.13;;;7.57;;
66384;SDS011;53426;55.872;37.462;2022-08-19T01:40:33;13.93;;;7.13;;
66384;SDS011;53426;55.872;37.462;2022-08-19T01:43:01;17.05;;;7.22;;
66384;SDS011;53426;55.872;37.462;2022-08-19T01:45:29;14.40;;;6.55;;
66384;SDS011;53426;55.872;37.462;2022-08-19T01:47:57;14.48;;;7.30;;
66384;SDS011;53426;55.872;37.462;2022-08-19T01:50:24;13.45;;;6.90;;
66384;SDS011;53426;55.872;37.462;2022-08-19T01:52:51;14.75;;;6.97;;
66384;SDS011;53426;55.872;37.462;2022-08-19T01:55:19;12.50;;;7.10;;
66384;SDS011;53426;55.872;37.462;2022-08-19T01:57:50;15.30;;;7.13;;
66384;SDS011;53426;55.872;37.462;2022-08-19T02:00:22;13.48;;;6.88;;
66384;SDS011;53426;55.872;37.462;2022-08-19T02:02:49;17.27;;;7.05;;
66384;SDS011;53426;55.872;37.462;2022-08-19T02:05:15;17.45;;;7.50;;
66384;SDS011;53426;55.872;37.462;2022-08-19T02:07:43;10.05;;;6.65;;
66384;SDS011;53426;55.872;37.462;2022-08-19T02:10:12;10.63;;;6.43;;
66384;SDS011;53426;55.872;37.462;2022-08-19T02:12:41;14.30;;;6.57;;
66384;SDS011;53426;55.872;37.462;2022-08-19T02:15:06;10.20;;;6.78;;
66384;SDS011;53426;55.872;37.462;2022-08-19T02:17:33;12.57;;;6.88;;
66384;SDS011;53426;55.872;37.462;2022-08-19T02:19:59;10.75;;;6.10;;
66384;SDS011;53426;55.872;37.462;2022-08-19T02:22:25;9.85;;;6.43;;
66384;SDS011;53426;55.872;37.462;2022-08-19T02:24:52;11.98;;;5.50;;
66384;SDS011;53426;55.872;37.462;2022-08-19T02:27:18;13.43;;;6.60;;
66384;SDS011;53426;55.872;37.462;2022-08-19T02:29:48;9.70;;;6.40;;
66384;SDS011;53426;55.872;37.462;2022-08-19T02:32:15;12.73;;;6.38;;
66384;SDS011;53426;55.872;37.462;2022-08-19T02:34:42;10.77;;;6.35;;
66384;SDS011;53426;55.872;37.462;2022-08-19T02:37:07;14.73;;;7.05;;
66384;SDS011;53426;55.872;37.462;2022-08-19T02:39:56;13.32;;;6.50;;
66384;SDS011;53426;55.872;37.462;2022-08-19T02:42:22;11.32;;;6.65;;
66384;SDS011;53426;55.872;37.462;2022-08-19T02:44:48;13.88;;;6.78;;
66384;SDS011;53426;55.872;37.462;2022-08-19T02:47:14;14.55;;;6.10;;
66384;SDS011;53426;55.872;37.462;2022-08-19T02:49:40;10.18;;;5.75;;
66384;SDS011;53426;55.872;37.462;2022-08-19T02:52:07;11.77;;;5.63;;
66384;SDS011;53426;55.872;37.462;2022-08-19T02:54:33;13.77;;;5.60;;
66384;SDS011;53426;55.872;37.462;2022-08-19T02:57:00;8.55;;;6.03;;
66384;SDS011;53426;55.872;37.462;2022-08-19T02:59:29;10.07;;;5.63;;
66384;SDS011;53426;55.872;37.462;2022-08-19T03:01:55;11.10;;;5.68;;
66384;SDS011;53426;55.872;37.462;2022-08-19T03:04:21;10.65;;;5.63;;
66384;SDS011;53426;55.872;37.462;2022-08-19T03:06:48;10.60;;;5.53;;
66384;SDS011;53426;55.872;37.462;2022-08-19T03:09:16;8.75;;;5.07;;
66384;SDS011;53426;55.872;37.462;2022-08-19T03:11:43;11.07;;;5.25;;
66384;SDS011;53426;55.872;37.462;2022-08-19T03:14:09;11.63;;;5.38;;
66384;SDS011;53426;55.872;37.462;2022-08-19T03:16:40;11.75;;;5.22;;
66384;SDS011;53426;55.872;37.462;2022-08-19T03:19:11;12.82;;;5.80;;
66384;SDS011;53426;55.872;37.462;2022-08-19T03:21:37;5.90;;;4.80;;
66384;SDS011;53426;55.872;37.462;2022-08-19T03:24:04;7.25;;;5.50;;
66384;SDS011;53426;55.872;37.462;2022-08-19T03:26:32;9.50;;;6.00;;
66384;SDS011;53426;55.872;37.462;2022-08-19T03:29:00;8.98;;;5.57;;
66384;SDS011;53426;55.872;37.462;2022-08-19T03:31:28;12.48;;;6.22;;
66384;SDS011;53426;55.872;37.462;2022-08-19T03:33:54;13.27;;;5.78;;
66384;SDS011;53426;55.872;37.462;2022-08-19T03:36:21;13.82;;;5.97;;
66384;SDS011;53426;55.872;37.462;2022-08-19T03:38:50;11.65;;;5.60;;
66384;SDS011;53426;55.872;37.462;2022-08-19T03:41:23;13.10;;;5.70;;
66384;SDS011;53426;55.872;37.462;2022-08-19T03:43:51;11.15;;;6.00;;
66384;SDS011;53426;55.872;37.462;2022-08-19T03:46:20;16.98;;;5.38;;
66384;SDS011;53426;55.872;37.462;2022-08-19T03:48:47;10.23;;;5.72;;
66384;SDS011;53426;55.872;37.462;2022-08-19T03:51:16;15.05;;;5.57;;
66384;SDS011;53426;55.872;37.462;2022-08-19T03:53:53;14.75;;;5.60;;
66384;SDS011;53426;55.872;37.462;2022-08-19T03:56:19;20.25;;;6.32;;
66384;SDS011;53426;55.872;37.462;2022-08-19T03:58:46;10.88;;;5.85;;
66384;SDS011;53426;55.872;37.462;2022-08-19T04:01:15;13.93;;;5.35;;
66384;SDS011;53426;55.872;37.462;2022-08-19T04:03:44;12.13;;;5.80;;
66384;SDS011;53426;55.872;37.462;2022-08-19T04:06:22;11.55;;;5.55;;
66384;SDS011;53426;55.872;37.462;2022-08-19T04:08:50;8.45;;;4.97;;
66384;SDS011;53426;55.872;37.462;2022-08-19T04:11:23;12.07;;;4.88;;
66384;SDS011;53426;55.872;37.462;2022-08-19T04:13:51;6.13;;;5.25;;
66384;SDS011;53426;55.872;37.462;2022-08-19T04:16:19;12.45;;;5.00;;
66384;SDS011;53426;55.872;37.462;2022-08-19T04:18:46;23.67;;;5.00;;
66384;SDS011;53426;55.872;37.462;2022-08-19T04:21:17;9.18;;;5.05;;
66384;SDS011;53426;55.872;37.462;2022-08-19T04:23:45;10.02;;;5.03;;
66384;SDS011;53426;55.872;37.462;2022-08-19T04:26:15;10.30;;;5.13;;
66384;SDS011;53426;55.872;37.462;2022-08-19T04:28:43;19.02;;;4.65;;
66384;SDS011;53426;55.872;37.462;2022-08-19T04:31:15;10.57;;;5.45;;
66384;SDS011;53426;55.872;37.462;2022-08-19T04:33:42;13.75;;;4.05;;
66384;SDS011;53426;55.872;37.462;2022-08-19T04:36:08;11.75;;;4.72;;
66384;SDS011;53426;55.872;37.462;2022-08-19T04:38:42;10.10;;;4.40;;
66384;SDS011;53426;55.872;37.462;2022-08-19T04:41:08;12.43;;;3.95;;
66384;SDS011;53426;55.872;37.462;2022-08-19T04:43:52;12.90;;;4.35;;
66384;SDS011;53426;55.872;37.462;2022-08-19T04:46:18;12.35;;;3.95;;
66384;SDS011;53426;55.872;37.462;2022-08-19T04:48:44;16.45;;;4.05;;
66384;SDS011;53426;55.872;37.462;2022-08-19T04:51:11;9.20;;;4.20;;
66384;SDS011;53426;55.872;37.462;2022-08-19T04:53:39;7.93;;;4.30;;
66384;SDS011;53426;55.872;37.462;2022-08-19T04:56:08;13.30;;;4.28;;
66384;SDS011;53426;55.872;37.462;2022-08-19T04:58:39;8.38;;;4.03;;
66384;SDS011;53426;55.872;37.462;2022-08-19T05:01:08;8.80;;;4.13;;
66384;SDS011;53426;55.872;37.462;2022-08-19T05:03:37;19.63;;;4.10;;
66384;SDS011;53426;55.872;37.462;2022-08-19T05:06:07;7.55;;;3.80;;
66384;SDS011;53426;55.872;37.462;2022-08-19T05:08:36;10.98;;;3.70;;
66384;SDS011;53426;55.872;37.462;2022-08-19T05:11:07;7.00;;;3.70;;
66384;SDS011;53426;55.872;37.462;2022-08-19T05:16:15;8.35;;;3.45;;
66384;SDS011;53426;55.872;37.462;2022-08-19T05:18:43;11.25;;;3.75;;
66384;SDS011;53426;55.872;37.462;2022-08-19T05:24:13;7.65;;;3.97;;
66384;SDS011;53426;55.872;37.462;2022-08-19T05:26:40;11.95;;;3.83;;
66384;SDS011;53426;55.872;37.462;2022-08-19T05:29:08;10.73;;;3.78;;
66384;SDS011;53426;55.872;37.462;2022-08-19T05:31:36;11.50;;;3.97;;
66384;SDS011;53426;55.872;37.462;2022-08-19T05:34:04;11.95;;;3.83;;
66384;SDS011;53426;55.872;37.462;2022-08-19T05:36:41;12.98;;;3.60;;
66384;SDS011;53426;55.872;37.462;2022-08-19T05:39:13;7.28;;;3.83;;
66384;SDS011;53426;55.872;37.462;2022-08-19T05:41:42;14.07;;;3.83;;
66384;SDS011;53426;55.872;37.462;2022-08-19T05:44:09;11.63;;;4.18;;
66384;SDS011;53426;55.872;37.462;2022-08-19T05:46:35;7.00;;;3.58;;
66384;SDS011;53426;55.872;37.462;2022-08-19T05:49:03;9.38;;;3.60;;
66384;SDS011;53426;55.872;37.462;2022-08-19T05:51:31;8.35;;;3.35;;
66384;SDS011;53426;55.872;37.462;2022-08-19T05:53:59;7.43;;;4.38;;
66384;SDS011;53426;55.872;37.462;2022-08-19T05:56:27;13.55;;;3.95;;
66384;SDS011;53426;55.872;37.462;2022-08-19T05:58:55;11.73;;;3.72;;
66384;SDS011;53426;55.872;37.462;2022-08-19T06:01:22;12.15;;;3.95;;
66384;SDS011;53426;55.872;37.462;2022-08-19T06:03:48;12.38;;;3.90;;
66384;SDS011;53426;55.872;37.462;2022-08-19T06:06:14;11.63;;;3.85;;
66384;SDS011;53426;55.872;37.462;2022-08-19T06:08:43;17.52;;;3.90;;
66384;SDS011;53426;55.872;37.462;2022-08-19T06:11:20;8.02;;;4.00;;
66384;SDS011;53426;55.872;37.462;2022-08-19T06:13:50;12.15;;;3.83;;
66384;SDS011;53426;55.872;37.462;2022-08-19T06:16:18;6.25;;;3.53;;
66384;SDS011;53426;55.872;37.462;2022-08-19T06:18:51;9.38;;;4.10;;
66384;SDS011;53426;55.872;37.462;2022-08-19T06:21:21;9.88;;;3.70;;
66384;SDS011;53426;55.872;37.462;2022-08-19T06:23:49;13.57;;;4.50;;
66384;SDS011;53426;55.872;37.462;2022-08-19T06:26:19;9.15;;;4.40;;
66384;SDS011;53426;55.872;37.462;2022-08-19T06:28:49;9.95;;;4.47;;
66384;SDS011;53426;55.872;37.462;2022-08-19T06:31:23;15.25;;;4.72;;
66384;SDS011;53426;55.872;37.462;2022-08-19T06:33:55;19.42;;;5.18;;
66384;SDS011;53426;55.872;37.462;2022-08-19T06:36:27;10.35;;;4.97;;
66384;SDS011;53426;55.872;37.462;2022-08-19T06:39:02;10.15;;;5.00;;
66384;SDS011;53426;55.872;37.462;2022-08-19T06:41:38;10.35;;;4.60;;
66384;SDS011;53426;55.872;37.462;2022-08-19T06:44:15;13.55;;;5.28;;
66384;SDS011;53426;55.872;37.462;2022-08-19T06:46:47;11.23;;;5.03;;
66384;SDS011;53426;55.872;37.462;2022-08-19T06:49:19;7.50;;;4.78;;
66384;SDS011;53426;55.872;37.462;2022-08-19T06:51:50;8.75;;;4.32;;
66384;SDS011;53426;55.872;37.462;2022-08-19T06:54:22;9.23;;;4.60;;
66384;SDS011;53426;55.872;37.462;2022-08-19T06:56:55;14.82;;;4.47;;
66384;SDS011;53426;55.872;37.462;2022-08-19T06:59:23;9.85;;;4.35;;
66384;SDS011;53426;55.872;37.462;2022-08-19T07:01:53;8.18;;;4.05;;
66384;SDS011;53426;55.872;37.462;2022-08-19T07:04:22;7.90;;;4.25;;
66384;SDS011;53426;55.872;37.462;2022-08-19T07:06:55;7.70;;;4.43;;
66384;SDS011;53426;55.872;37.462;2022-08-19T07:09:43;13.32;;;4.75;;
66384;SDS011;53426;55.872;37.462;2022-08-19T07:12:10;7.57;;;4.20;;
66384;SDS011;53426;55.872;37.462;2022-08-19T07:14:38;8.95;;;4.35;;
66384;SDS011;53426;55.872;37.462;2022-08-19T07:17:06;10.05;;;4.47;;
66384;SDS011;53426;55.872;37.462;2022-08-19T07:19:34;15.18;;;4.53;;
66384;SDS011;53426;55.872;37.462;2022-08-19T07:22:01;11.43;;;4.72;;
66384;SDS011;53426;55.872;37.462;2022-08-19T07:24:28;7.53;;;4.47;;
66384;SDS011;53426;55.872;37.462;2022-08-19T07:26:57;22.40;;;4.80;;
66384;SDS011;53426;55.872;37.462;2022-08-19T07:29:26;5.45;;;4.40;;
66384;SDS011;53426;55.872;37.462;2022-08-19T07:31:53;8.55;;;4.63;;
66384;SDS011;53426;55.872;37.462;2022-08-19T07:34:24;14.52;;;4.85;;
66384;SDS011;53426;55.872;37.462;2022-08-19T07:36:51;12.55;;;4.47;;
66384;SDS011;53426;55.872;37.462;2022-08-19T07:39:19;12.70;;;4.25;;
66384;SDS011;53426;55.872;37.462;2022-08-19T07:41:47;13.93;;;4.78;;
66384;SDS011;53426;55.872;37.462;2022-08-19T07:44:13;7.97;;;3.90;;
66384;SDS011;53426;55.872;37.462;2022-08-19T07:46:42;13.25;;;3.92;;
66384;SDS011;53426;55.872;37.462;2022-08-19T07:49:10;17.40;;;4.57;;
66384;SDS011;53426;55.872;37.462;2022-08-19T07:51:49;7.88;;;4.03;;
66384;SDS011;53426;55.872;37.462;2022-08-19T07:54:20;13.45;;;3.63;;
66384;SDS011;53426;55.872;37.462;2022-08-19T07:56:47;12.32;;;4.05;;
66384;SDS011;53426;55.872;37.462;2022-08-19T07:59:15;8.40;;;4.00;;
66384;SDS011;53426;55.872;37.462;2022-08-19T08:01:42;7.55;;;3.65;;
66384;SDS011;53426;55.872;37.462;2022-08-19T08:04:09;17.70;;;4.18;;
66384;SDS011;53426;55.872;37.462;2022-08-19T08:06:54;4.55;;;3.50;;
66384;SDS011;53426;55.872;37.462;2022-08-19T08:09:39;7.80;;;3.70;;
66384;SDS011;53426;55.872;37.462;2022-08-19T08:12:09;11.18;;;3.60;;
66384;SDS011;53426;55.872;37.462;2022-08-19T08:14:43;8.52;;;3.40;;
66384;SDS011;53426;55.872;37.462;2022-08-19T08:17:16;5.38;;;3.13;;
66384;SDS011;53426;55.872;37.462;2022-08-19T08:19:43;9.13;;;3.47;;
66384;SDS011;53426;55.872;37.462;2022-08-19T08:22:11;5.38;;;3.40;;
66384;SDS011;53426;55.872;37.462;2022-08-19T08:25:11;10.20;;;3.30;;
66384;SDS011;53426;55.872;37.462;2022-08-19T08:27:49;12.60;;;2.90;;
66384;SDS011;53426;55.872;37.462;2022-08-19T08:31:04;7.18;;;3.05;;
66384;SDS011;53426;55.872;37.462;2022-08-19T08:33:30;18.33;;;3.83;;
66384;SDS011;53426;55.872;37.462;2022-08-19T08:35:56;9.38;;;3.40;;
66384;SDS011;53426;55.872;37.462;2022-08-19T08:38:22;4.88;;;2.67;;
66384;SDS011;53426;55.872;37.462;2022-08-19T08:40:49;7.18;;;3.08;;
66384;SDS011;53426;55.872;37.462;2022-08-19T08:43:27;7.32;;;3.28;;
66384;SDS011;53426;55.872;37.462;2022-08-19T08:46:22;6.90;;;3.38;;
66384;SDS011;53426;55.872;37.462;2022-08-19T08:51:27;9.68;;;3.58;;
66384;SDS011;53426;55.872;37.462;2022-08-19T08:56:29;9.70;;;4.05;;
66384;SDS011;53426;55.872;37.462;2022-08-19T08:59:06;8.50;;;3.58;;
66384;SDS011;53426;55.872;37.462;2022-08-19T09:01:38;10.82;;;3.80;;
66384;SDS011;53426;55.872;37.462;2022-08-19T09:04:04;7.97;;;3.63;;
66384;SDS011;53426;55.872;37.462;2022-08-19T09:09:46;7.50;;;3.78;;
66384;SDS011;53426;55.872;37.462;2022-08-19T09:15:15;14.30;;;3.90;;
66384;SDS011;53426;55.872;37.462;2022-08-19T09:18:18;10.63;;;3.95;;
66384;SDS011;53426;55.872;37.462;2022-08-19T09:20:46;7.38;;;4.55;;
66384;SDS011;53426;55.872;37.462;2022-08-19T09:23:12;4.68;;;4.05;;
66384;SDS011;53426;55.872;37.462;2022-08-19T09:25:39;6.47;;;3.92;;
66384;SDS011;53426;55.872;37.462;2022-08-19T09:28:05;8.00;;;4.15;;
66384;SDS011;53426;55.872;37.462;2022-08-19T09:30:33;6.30;;;3.80;;
66384;SDS011;53426;55.872;37.462;2022-08-19T09:33:04;5.13;;;3.50;;
66384;SDS011;53426;55.872;37.462;2022-08-19T09:35:31;9.00;;;3.97;;
66384;SDS011;53426;55.872;37.462;2022-08-19T09:37:59;6.93;;;3.45;;
66384;SDS011;53426;55.872;37.462;2022-08-19T09:40:29;9.50;;;3.78;;
66384;SDS011;53426;55.872;37.462;2022-08-19T09:42:56;6.22;;;3.90;;
66384;SDS011;53426;55.872;37.462;2022-08-19T09:45:28;5.95;;;3.97;;
66384;SDS011;53426;55.872;37.462;2022-08-19T09:47:54;11.55;;;4.25;;
66384;SDS011;53426;55.872;37.462;2022-08-19T09:50:26;12.32;;;4.28;;
66384;SDS011;53426;55.872;37.462;2022-08-19T09:52:52;6.90;;;3.85;;
66384;SDS011;53426;55.872;37.462;2022-08-19T09:55:19;7.70;;;4.10;;
66384;SDS011;53426;55.872;37.462;2022-08-19T09:57:44;5.65;;;3.58;;
66384;SDS011;53426;55.872;37.462;2022-08-19T10:00:10;12.88;;;4.22;;
66384;SDS011;53426;55.872;37.462;2022-08-19T10:02:36;6.68;;;3.92;;
66384;SDS011;53426;55.872;37.462;2022-08-19T10:05:02;7.35;;;3.78;;
66384;SDS011;53426;55.872;37.462;2022-08-19T10:07:47;10.63;;;3.88;;
66384;SDS011;53426;55.872;37.462;2022-08-19T10:10:13;6.28;;;3.90;;
66384;SDS011;53426;55.872;37.462;2022-08-19T10:12:42;9.77;;;4.10;;
66384;SDS011;53426;55.872;37.462;2022-08-19T10:15:11;8.40;;;3.83;;
66384;SDS011;53426;55.872;37.462;2022-08-19T10:17:38;9.32;;;3.80;;
66384;SDS011;53426;55.872;37.462;2022-08-19T10:20:04;12.45;;;4.00;;
66384;SDS011;53426;55.872;37.462;2022-08-19T10:22:30;8.02;;;4.20;;
66384;SDS011;53426;55.872;37.462;2022-08-19T10:24:56;5.47;;;3.65;;
66384;SDS011;53426;55.872;37.462;2022-08-19T10:27:22;11.35;;;3.88;;
66384;SDS011;53426;55.872;37.462;2022-08-19T10:29:48;9.95;;;4.03;;
66384;SDS011;53426;55.872;37.462;2022-08-19T10:32:26;7.88;;;4.10;;
66384;SDS011;53426;55.872;37.462;2022-08-19T10:34:54;8.63;;;4.15;;
66384;SDS011;53426;55.872;37.462;2022-08-19T10:37:21;6.05;;;4.43;;
66384;SDS011;53426;55.872;37.462;2022-08-19T10:39:47;12.15;;;4.40;;
66384;SDS011;53426;55.872;37.462;2022-08-19T10:45:05;13.82;;;4.70;;
66384;SDS011;53426;55.872;37.462;2022-08-19T10:47:32;12.18;;;4.50;;
66384;SDS011;53426;55.872;37.462;2022-08-19T10:49:59;14.75;;;4.53;;
66384;SDS011;53426;55.872;37.462;2022-08-19T10:55:10;13.18;;;4.88;;
66384;SDS011;53426;55.872;37.462;2022-08-19T10:57:54;11.90;;;4.88;;
66384;SDS011;53426;55.872;37.462;2022-08-19T11:00:20;8.30;;;4.60;;
66384;SDS011;53426;55.872;37.462;2022-08-19T11:02:48;16.10;;;4.25;;
66384;SDS011;53426;55.872;37.462;2022-08-19T11:05:15;9.38;;;4.20;;
66384;SDS011;53426;55.872;37.462;2022-08-19T11:07:42;4.65;;;3.75;;
66384;SDS011;53426;55.872;37.462;2022-08-19T11:10:10;10.45;;;4.70;;
66384;SDS011;53426;55.872;37.462;2022-08-19T11:12:39;10.55;;;4.20;;
66384;SDS011;53426;55.872;37.462;2022-08-19T11:15:07;9.05;;;3.92;;
66384;SDS011;53426;55.872;37.462;2022-08-19T11:17:37;11.98;;;3.60;;
66384;SDS011;53426;55.872;37.462;2022-08-19T11:20:10;15.57;;;3.75;;
66384;SDS011;53426;55.872;37.462;2022-08-19T11:22:37;29.77;;;4.38;;
66384;SDS011;53426;55.872;37.462;2022-08-19T11:25:04;14.60;;;3.95;;
66384;SDS011;53426;55.872;37.462;2022-08-19T11:27:30;7.45;;;3.47;;
66384;SDS011;53426;55.872;37.462;2022-08-19T11:29:56;7.93;;;3.65;;
66384;SDS011;53426;55.872;37.462;2022-08-19T11:32:22;5.60;;;3.53;;
66384;SDS011;53426;55.872;37.462;2022-08-19T11:34:51;7.57;;;3.10;;
66384;SDS011;53426;55.872;37.462;2022-08-19T11:37:17;10.68;;;3.22;;
66384;SDS011;53426;55.872;37.462;2022-08-19T11:39:42;14.98;;;4.97;;
66384;SDS011;53426;55.872;37.462;2022-08-19T11:42:08;18.42;;;4.20;;
66384;SDS011;53426;55.872;37.462;2022-08-19T11:47:23;14.02;;;4.25;;
66384;SDS011;53426;55.872;37.462;2022-08-19T11:49:49;7.40;;;4.00;;
66384;SDS011;53426;55.872;37.462;2022-08-19T11:52:15;17.80;;;4.00;;
66384;SDS011;53426;55.872;37.462;2022-08-19T11:54:41;9.07;;;3.78;;
66384;SDS011;53426;55.872;37.462;2022-08-19T11:57:06;16.58;;;3.83;;
66384;SDS011;53426;55.872;37.462;2022-08-19T11:59:32;12.63;;;3.33;;
66384;SDS011;53426;55.872;37.462;2022-08-19T12:01:58;4.10;;;2.92;;
66384;SDS011;53426;55.872;37.462;2022-08-19T12:04:24;3.88;;;2.90;;
66384;SDS011;53426;55.872;37.462;2022-08-19T12:06:50;7.07;;;3.13;;
66384;SDS011;53426;55.872;37.462;2022-08-19T12:09:16;8.18;;;3.60;;
66384;SDS011;53426;55.872;37.462;2022-08-19T12:11:47;8.45;;;2.97;;
66384;SDS011;53426;55.872;37.462;2022-08-19T12:14:14;4.40;;;3.22;;
66384;SDS011;53426;55.872;37.462;2022-08-19T12:16:43;8.38;;;3.10;;
66384;SDS011;53426;55.872;37.462;2022-08-19T12:19:10;6.20;;;2.90;;
66384;SDS011;53426;55.872;37.462;2022-08-19T12:21:36;10.68;;;3.35;;
66384;SDS011;53426;55.872;37.462;2022-08-19T12:24:03;9.65;;;3.15;;
66384;SDS011;53426;55.872;37.462;2022-08-19T12:26:30;9.15;;;2.85;;
66384;SDS011;53426;55.872;37.462;2022-08-19T12:28:57;5.07;;;2.53;;
66384;SDS011;53426;55.872;37.462;2022-08-19T12:31:25;3.70;;;2.45;;
66384;SDS011;53426;55.872;37.462;2022-08-19T12:33:53;9.70;;;2.83;;
66384;SDS011;53426;55.872;37.462;2022-08-19T12:36:21;5.10;;;2.70;;
66384;SDS011;53426;55.872;37.462;2022-08-19T12:38:48;6.82;;;2.70;;
66384;SDS011;53426;55.872;37.462;2022-08-19T12:41:14;5.13;;;2.80;;
66384;SDS011;53426;55.872;37.462;2022-08-19T12:43:44;15.82;;;2.83;;
66384;SDS011;53426;55.872;37.462;2022-08-19T12:46:10;9.45;;;2.88;;
66384;SDS011;53426;55.872;37.462;2022-08-19T12:48:36;5.53;;;2.95;;
66384;SDS011;53426;55.872;37.462;2022-08-19T12:51:11;11.90;;;3.50;;
66384;SDS011;53426;55.872;37.462;2022-08-19T12:53:40;7.00;;;2.90;;
66384;SDS011;53426;55.872;37.462;2022-08-19T12:56:07;2.95;;;2.67;;
66384;SDS011;53426;55.872;37.462;2022-08-19T12:58:36;6.70;;;3.10;;
66384;SDS011;53426;55.872;37.462;2022-08-19T13:01:09;9.77;;;3.10;;
66384;SDS011;53426;55.872;37.462;2022-08-19T13:03:38;6.10;;;3.15;;
66384;SDS011;53426;55.872;37.462;2022-08-19T13:06:05;5.88;;;3.17;;
66384;SDS011;53426;55.872;37.462;2022-08-19T13:08:31;15.63;;;3.40;;
66384;SDS011;53426;55.872;37.462;2022-08-19T13:10:57;7.38;;;3.80;;
66384;SDS011;53426;55.872;37.462;2022-08-19T13:13:32;6.90;;;3.70;;
66384;SDS011;53426;55.872;37.462;2022-08-19T13:16:00;7.00;;;3.53;;
66384;SDS011;53426;55.872;37.462;2022-08-19T13:18:30;8.50;;;3.88;;
66384;SDS011;53426;55.872;37.462;2022-08-19T13:21:01;9.75;;;3.83;;
66384;SDS011;53426;55.872;37.462;2022-08-19T13:23:29;5.45;;;3.75;;
66384;SDS011;53426;55.872;37.462;2022-08-19T13:25:56;15.07;;;4.25;;
66384;SDS011;53426;55.872;37.462;2022-08-19T13:28:26;7.60;;;3.80;;
66384;SDS011;53426;55.872;37.462;2022-08-19T13:31:14;10.70;;;3.80;;
66384;SDS011;53426;55.872;37.462;2022-08-19T13:33:59;6.43;;;3.38;;
66384;SDS011;53426;55.872;37.462;2022-08-19T13:36:26;4.88;;;3.53;;
66384;SDS011;53426;55.872;37.462;2022-08-19T13:38:52;8.75;;;3.45;;
66384;SDS011;53426;55.872;37.462;2022-08-19T13:41:18;8.43;;;3.42;;
66384;SDS011;53426;55.872;37.462;2022-08-19T13:43:44;9.50;;;3.30;;
66384;SDS011;53426;55.872;37.462;2022-08-19T13:46:11;7.35;;;3.38;;
66384;SDS011;53426;55.872;37.462;2022-08-19T13:48:40;10.52;;;3.40;;
66384;SDS011;53426;55.872;37.462;2022-08-19T13:51:07;10.57;;;3.35;;
66384;SDS011;53426;55.872;37.462;2022-08-19T13:53:37;15.50;;;3.88;;
66384;SDS011;53426;55.872;37.462;2022-08-19T13:56:07;14.88;;;4.00;;
66384;SDS011;53426;55.872;37.462;2022-08-19T13:58:39;10.02;;;4.05;;
66384;SDS011;53426;55.872;37.462;2022-08-19T14:01:06;5.28;;;3.25;;
66384;SDS011;53426;55.872;37.462;2022-08-19T14:03:32;10.40;;;3.28;;
66384;SDS011;53426;55.872;37.462;2022-08-19T14:05:58;5.53;;;3.40;;
66384;SDS011;53426;55.872;37.462;2022-08-19T14:08:24;19.95;;;3.53;;
66384;SDS011;53426;55.872;37.462;2022-08-19T14:10:55;9.25;;;3.25;;
66384;SDS011;53426;55.872;37.462;2022-08-19T14:13:22;6.63;;;3.53;;
66384;SDS011;53426;55.872;37.462;2022-08-19T14:15:49;4.10;;;3.28;;
66384;SDS011;53426;55.872;37.462;2022-08-19T14:18:16;7.57;;;3.30;;
66384;SDS011;53426;55.872;37.462;2022-08-19T14:20:43;7.18;;;3.40;;
66384;SDS011;53426;55.872;37.462;2022-08-19T14:23:10;11.75;;;3.40;;
66384;SDS011;53426;55.872;37.462;2022-08-19T14:25:39;14.10;;;3.47;;
66384;SDS011;53426;55.872;37.462;2022-08-19T14:28:05;6.38;;;3.30;;
66384;SDS011;53426;55.872;37.462;2022-08-19T14:30:32;7.53;;;3.13;;
66384;SDS011;53426;55.872;37.462;2022-08-19T14:33:01;8.23;;;3.25;;
66384;SDS011;53426;55.872;37.462;2022-08-19T14:35:27;7.88;;;3.15;;
66384;SDS011;53426;55.872;37.462;2022-08-19T14:37:55;7.13;;;2.95;;
66384;SDS011;53426;55.872;37.462;2022-08-19T14:40:23;8.75;;;3.20;;
66384;SDS011;53426;55.872;37.462;2022-08-19T14:42:55;8.30;;;3.95;;
66384;SDS011;53426;55.872;37.462;2022-08-19T14:45:25;8.73;;;3.13;;
66384;SDS011;53426;55.872;37.462;2022-08-19T14:47:56;7.13;;;3.60;;
66384;SDS011;53426;55.872;37.462;2022-08-19T14:50:24;12.00;;;3.72;;
66384;SDS011;53426;55.872;37.462;2022-08-19T14:52:57;9.50;;;3.70;;
66384;SDS011;53426;55.872;37.462;2022-08-19T14:57:51;7.88;;;3.65;;
66384;SDS011;53426;55.872;37.462;2022-08-19T15:00:17;8.73;;;3.47;;
66384;SDS011;53426;55.872;37.462;2022-08-19T15:02:43;6.18;;;3.22;;
66384;SDS011;53426;55.872;37.462;2022-08-19T15:05:09;10.32;;;3.38;;
66384;SDS011;53426;55.872;37.462;2022-08-19T15:07:38;10.50;;;3.80;;